createdAt,value
2023-01-26T00:00:03.622Z,24.63
2023-01-26T00:02:34.817Z,25.70
2023-01-26T00:05:03.161Z,24.73
2023-01-26T00:07:31.368Z,24.87
2023-01-26T00:09:59.536Z,22.97
2023-01-26T00:12:27.713Z,23.73
2023-01-26T00:14:55.946Z,23.67
2023-01-26T00:17:38.046Z,23.37
2023-01-26T00:20:08.924Z,22.37
2023-01-26T00:22:38.459Z,22.90
2023-01-26T00:25:07.880Z,22.63
2023-01-26T00:27:36.125Z,23.83
2023-01-26T00:30:05.179Z,22.23
2023-01-26T00:32:35.607Z,23.90
2023-01-26T00:35:03.899Z,24.43
2023-01-26T00:37:34.062Z,23.60
2023-01-26T00:40:02.482Z,26.50
2023-01-26T00:42:30.644Z,23.50
2023-01-26T00:44:58.787Z,21.83
2023-01-26T00:47:27.065Z,23.30
2023-01-26T00:49:58.099Z,23.70
2023-01-26T00:52:30.033Z,21.77
2023-01-26T00:55:00.268Z,22.90
2023-01-26T00:57:28.471Z,21.70
2023-01-26T00:59:58.103Z,24.83
2023-01-26T01:02:26.527Z,24.63
2023-01-26T01:04:54.803Z,23.70
2023-01-26T01:07:23.081Z,25.17
2023-01-26T01:09:51.365Z,25.50
2023-01-26T01:12:20.987Z,25.30
2023-01-26T01:14:49.193Z,24.67
2023-01-26T01:17:17.399Z,24.80
2023-01-26T01:19:47.017Z,25.03
2023-01-26T01:22:15.176Z,23.87
2023-01-26T01:24:44.003Z,23.93
2023-01-26T01:27:12.228Z,25.10
2023-01-26T01:29:41.938Z,23.37
2023-01-26T01:32:10.090Z,22.47
2023-01-26T01:34:38.282Z,22.50
2023-01-26T01:37:07.008Z,25.50
2023-01-26T01:39:35.424Z,22.70
2023-01-26T01:42:03.648Z,23.80
2023-01-26T01:44:32.228Z,23.23
2023-01-26T01:47:04.219Z,23.83
2023-01-26T01:49:35.798Z,25.30
2023-01-26T01:52:10.829Z,21.53
2023-01-26T01:54:42.258Z,23.83
2023-01-26T01:57:17.943Z,23.43
2023-01-26T01:59:51.260Z,24.60
2023-01-26T02:02:21.225Z,23.03
2023-01-26T02:04:49.995Z,23.87
2023-01-26T02:07:18.593Z,24.27
2023-01-26T02:10:19.166Z,22.90
2023-01-26T02:12:49.860Z,23.47
2023-01-26T02:15:18.285Z,23.57
2023-01-26T02:17:48.797Z,22.50
2023-01-26T02:20:21.808Z,22.53
2023-01-26T02:23:01.900Z,25.03
2023-01-26T02:25:44.359Z,23.53
2023-01-26T02:28:14.605Z,23.87
2023-01-26T02:30:42.999Z,25.57
2023-01-26T02:33:16.499Z,25.17
2023-01-26T02:35:44.988Z,27.50
2023-01-26T02:38:14.224Z,26.13
2023-01-26T02:40:48.468Z,27.70
2023-01-26T02:43:17.832Z,26.03
2023-01-26T02:45:46.544Z,25.97
2023-01-26T02:48:34.994Z,24.10
2023-01-26T02:51:04.753Z,25.47
2023-01-26T02:53:34.343Z,27.63
2023-01-26T02:56:02.032Z,27.27
2023-01-26T02:58:31.820Z,24.10
2023-01-26T03:01:00.266Z,24.80
2023-01-26T03:03:42.020Z,23.20
2023-01-26T03:06:11.556Z,24.40
2023-01-26T03:08:40.644Z,24.53
2023-01-26T03:11:10.108Z,26.10
2023-01-26T03:13:40.252Z,25.90
2023-01-26T03:16:10.419Z,24.10
2023-01-26T03:18:56.152Z,26.03
2023-01-26T03:21:42.126Z,24.83
2023-01-26T03:24:31.236Z,25.03
2023-01-26T03:27:25.172Z,25.47
2023-01-26T03:29:55.430Z,24.50
2023-01-26T03:32:24.377Z,26.63
2023-01-26T03:34:53.736Z,26.00
2023-01-26T03:37:22.937Z,27.47
2023-01-26T03:40:20.339Z,25.43
2023-01-26T03:43:05.766Z,27.07
2023-01-26T03:45:52.568Z,25.30
2023-01-26T03:48:40.743Z,27.20
2023-01-26T03:51:26.529Z,26.90
2023-01-26T03:54:12.101Z,27.90
2023-01-26T03:56:40.455Z,27.20
2023-01-26T03:59:15.786Z,27.57
2023-01-26T04:02:06.122Z,27.47
2023-01-26T04:04:53.728Z,25.90
2023-01-26T04:07:43.598Z,26.53
2023-01-26T04:10:12.684Z,26.13
2023-01-26T04:12:41.496Z,24.50
2023-01-26T04:15:35.986Z,23.53
2023-01-26T04:18:26.001Z,24.20
2023-01-26T04:21:12.781Z,22.50
2023-01-26T04:23:43.384Z,25.27
2023-01-26T04:26:11.617Z,24.53
2023-01-26T04:28:40.312Z,23.60
2023-01-26T04:31:09.153Z,23.33
2023-01-26T04:33:40.596Z,25.07
2023-01-26T04:36:10.645Z,23.97
2023-01-26T04:38:42.934Z,25.23
2023-01-26T04:41:11.832Z,25.93
2023-01-26T04:43:46.580Z,24.20
2023-01-26T04:46:15.096Z,24.30
2023-01-26T04:48:44.964Z,24.87
2023-01-26T04:51:15.288Z,24.73
2023-01-26T04:53:44.391Z,24.90
2023-01-26T04:56:23.795Z,25.10
2023-01-26T04:58:54.414Z,24.90
2023-01-26T05:01:23.979Z,24.37
2023-01-26T05:03:54.006Z,25.83
2023-01-26T05:06:23.695Z,27.03
2023-01-26T05:08:52.405Z,27.00
2023-01-26T05:11:20.848Z,24.77
2023-01-26T05:14:06.026Z,26.23
2023-01-26T05:17:12.365Z,23.67
2023-01-26T05:19:57.552Z,25.40
2023-01-26T05:22:41.780Z,23.30
2023-01-26T05:25:25.631Z,24.37
2023-01-26T05:28:00.520Z,25.17
2023-01-26T05:30:29.229Z,24.83
2023-01-26T05:33:02.980Z,24.57
2023-01-26T05:35:32.886Z,25.73
2023-01-26T05:38:01.634Z,24.37
2023-01-26T05:40:32.514Z,23.97
2023-01-26T05:43:01.269Z,24.10
2023-01-26T05:45:45.703Z,23.20
2023-01-26T05:48:15.713Z,22.50
2023-01-26T05:50:46.809Z,22.37
2023-01-26T05:53:17.536Z,23.70
2023-01-26T05:55:47.426Z,24.93
2023-01-26T05:58:15.842Z,24.43
2023-01-26T06:00:44.077Z,24.17
2023-01-26T06:03:20.347Z,24.00
2023-01-26T06:05:56.244Z,23.10
2023-01-26T06:08:54.287Z,22.37
2023-01-26T06:11:35.054Z,19.07
2023-01-26T06:14:23.490Z,19.90
2023-01-26T06:16:52.540Z,20.20
2023-01-26T06:19:20.921Z,17.60
2023-01-26T06:21:56.060Z,17.67
2023-01-26T06:24:25.093Z,19.37
2023-01-26T06:26:54.396Z,18.70
2023-01-26T06:29:22.871Z,20.37
2023-01-26T06:31:57.064Z,20.17
2023-01-26T06:34:25.897Z,19.40
2023-01-26T06:36:56.645Z,19.00
2023-01-26T06:39:30.197Z,19.77
2023-01-26T06:42:01.744Z,18.77
2023-01-26T06:44:29.947Z,17.87
2023-01-26T06:46:58.413Z,20.20
2023-01-26T06:49:26.758Z,17.80
2023-01-26T06:52:00.139Z,20.30
2023-01-26T06:54:43.400Z,19.33
2023-01-26T06:57:33.793Z,20.03
2023-01-26T07:00:14.121Z,19.30
2023-01-26T07:02:56.492Z,20.13
2023-01-26T07:05:25.825Z,19.80
2023-01-26T07:07:56.608Z,19.77
2023-01-26T07:10:24.801Z,20.43
2023-01-26T07:12:53.016Z,17.70
2023-01-26T07:15:21.248Z,20.33
2023-01-26T07:17:49.545Z,19.30
2023-01-26T07:20:18.190Z,20.03
2023-01-26T07:22:46.574Z,18.77
2023-01-26T07:25:16.277Z,19.17
2023-01-26T07:27:44.603Z,18.70
2023-01-26T07:30:14.661Z,22.67
2023-01-26T07:32:43.570Z,21.40
2023-01-26T07:35:11.897Z,21.67
2023-01-26T07:37:40.151Z,20.73
2023-01-26T07:40:10.643Z,23.73
2023-01-26T07:42:40.504Z,21.70
2023-01-26T07:45:29.236Z,22.53
2023-01-26T07:47:57.953Z,21.70
2023-01-26T07:50:27.210Z,22.87
2023-01-26T07:52:55.545Z,22.80
2023-01-26T07:55:26.073Z,22.73
2023-01-26T07:57:56.084Z,20.80
2023-01-26T08:00:24.534Z,20.73
2023-01-26T08:02:52.986Z,22.77
2023-01-26T08:05:21.374Z,21.60
2023-01-26T08:07:50.064Z,20.97
2023-01-26T08:10:18.784Z,22.53
2023-01-26T08:12:46.992Z,20.23
2023-01-26T08:15:17.011Z,21.00
2023-01-26T08:17:45.383Z,20.97
2023-01-26T08:20:14.401Z,20.23
2023-01-26T08:22:42.755Z,20.00
2023-01-26T08:25:11.433Z,19.13
2023-01-26T08:27:39.694Z,18.97
2023-01-26T08:30:10.086Z,19.27
2023-01-26T08:32:39.948Z,20.53
2023-01-26T08:35:08.830Z,19.50
2023-01-26T08:37:37.184Z,18.77
2023-01-26T08:40:06.042Z,19.30
2023-01-26T08:42:34.645Z,19.67
2023-01-26T08:45:02.964Z,20.37
2023-01-26T08:47:31.228Z,18.60
2023-01-26T08:50:01.089Z,18.90
2023-01-26T08:52:29.784Z,20.67
2023-01-26T08:54:58.081Z,21.00
2023-01-26T08:57:26.676Z,20.67
2023-01-26T08:59:54.864Z,19.80
2023-01-26T09:02:23.337Z,20.33
2023-01-26T09:04:51.715Z,20.27
2023-01-26T09:07:21.319Z,20.57
2023-01-26T09:09:49.698Z,21.97
2023-01-26T09:12:17.907Z,23.00
2023-01-26T09:14:46.292Z,19.93
2023-01-26T09:17:14.619Z,21.80
2023-01-26T09:19:44.919Z,20.17
2023-01-26T09:22:13.327Z,21.40
2023-01-26T09:24:42.848Z,21.13
2023-01-26T09:27:11.023Z,22.83
2023-01-26T09:29:39.181Z,23.87
2023-01-26T09:32:07.855Z,21.77
2023-01-26T09:34:36.167Z,22.10
2023-01-26T09:37:04.429Z,21.33
2023-01-26T09:39:32.777Z,22.80
2023-01-26T09:42:23.628Z,24.00
2023-01-26T09:45:01.850Z,22.53
2023-01-26T09:47:36.232Z,22.33
2023-01-26T09:50:12.040Z,23.53
2023-01-26T09:52:51.582Z,21.23
2023-01-26T09:55:22.994Z,25.67
2023-01-26T09:57:56.637Z,22.73
2023-01-26T10:00:29.667Z,21.43
2023-01-26T10:03:10.281Z,22.30
2023-01-26T10:05:45.421Z,22.93
2023-01-26T10:08:15.552Z,21.37
2023-01-26T10:10:47.816Z,21.60
2023-01-26T10:13:18.583Z,23.47
2023-01-26T10:15:50.549Z,21.53
2023-01-26T10:18:23.208Z,21.90
2023-01-26T10:20:54.115Z,21.53
2023-01-26T10:23:25.740Z,23.27
2023-01-26T10:25:57.428Z,21.20
2023-01-26T10:28:30.516Z,21.93
2023-01-26T10:30:59.316Z,23.40
2023-01-26T10:33:32.715Z,21.77
2023-01-26T10:36:01.264Z,21.77
2023-01-26T10:38:45.371Z,21.60
2023-01-26T10:41:25.796Z,18.00
2023-01-26T10:43:57.137Z,17.27
2023-01-26T10:46:28.569Z,19.50
2023-01-26T10:48:59.208Z,19.17
2023-01-26T10:51:31.384Z,21.20
2023-01-26T10:54:29.932Z,21.90
2023-01-26T10:56:59.571Z,17.90
2023-01-26T10:59:33.091Z,18.20
2023-01-26T11:02:04.374Z,18.97
2023-01-26T11:04:32.575Z,18.77
2023-01-26T11:07:23.983Z,18.90
2023-01-26T11:09:53.583Z,18.10
2023-01-26T11:12:25.769Z,18.67
2023-01-26T11:15:04.807Z,19.20
2023-01-26T11:17:38.402Z,18.43
2023-01-26T11:20:18.975Z,20.70
2023-01-26T11:22:55.891Z,17.80
2023-01-26T11:25:27.988Z,18.23
2023-01-26T11:28:16.014Z,18.87
2023-01-26T11:31:03.800Z,19.60
2023-01-26T11:33:39.908Z,18.40
2023-01-26T11:36:17.917Z,21.67
2023-01-26T11:38:53.457Z,19.30
2023-01-26T11:41:37.514Z,18.30
2023-01-26T11:44:21.148Z,17.60
2023-01-26T11:47:09.131Z,19.40
2023-01-26T11:49:52.248Z,17.33
2023-01-26T11:52:30.001Z,17.70
2023-01-26T11:55:15.170Z,17.43
2023-01-26T11:57:51.651Z,16.47
2023-01-26T12:00:30.380Z,17.63
2023-01-26T12:03:05.323Z,19.20
2023-01-26T12:08:39.103Z,18.13
2023-01-26T12:11:34.007Z,16.47
2023-01-26T12:14:25.093Z,16.40
2023-01-26T12:17:18.862Z,19.53
2023-01-26T12:19:55.444Z,17.47
2023-01-26T12:22:29.883Z,18.00
2023-01-26T12:25:20.605Z,16.87
2023-01-26T12:27:56.084Z,17.73
2023-01-26T12:30:31.234Z,16.87
2023-01-26T12:32:59.812Z,19.43
2023-01-26T12:35:43.381Z,17.67
2023-01-26T12:38:18.653Z,16.20
2023-01-26T12:41:01.467Z,17.67
2023-01-26T12:43:44.434Z,20.57
2023-01-26T12:46:13.846Z,15.10
2023-01-26T12:48:45.950Z,17.30
2023-01-26T12:51:20.988Z,17.07
2023-01-26T12:53:55.259Z,16.90
2023-01-26T12:56:27.649Z,17.60
2023-01-26T12:58:59.460Z,15.87
2023-01-26T13:01:38.340Z,15.93
2023-01-26T13:04:10.189Z,17.07
2023-01-26T13:06:39.894Z,16.43
2023-01-26T13:09:22.274Z,16.60
2023-01-26T13:11:52.824Z,15.67
2023-01-26T13:14:37.392Z,13.40
2023-01-26T13:17:49.458Z,12.17
2023-01-26T13:20:43.007Z,16.87
2023-01-26T13:23:41.856Z,16.87
2023-01-26T13:26:44.288Z,16.93
2023-01-26T13:29:33.621Z,18.40
2023-01-26T13:32:24.079Z,16.83
2023-01-26T13:34:57.400Z,18.20
2023-01-26T13:37:35.945Z,14.87
2023-01-26T13:40:15.428Z,16.77
2023-01-26T13:42:53.461Z,14.50
2023-01-26T13:45:30.334Z,13.03
2023-01-26T13:48:00.995Z,14.67
2023-01-26T13:50:33.959Z,15.50
2023-01-26T13:53:02.229Z,14.33
2023-01-26T13:55:33.310Z,13.80
2023-01-26T13:58:14.617Z,12.27
2023-01-26T14:00:43.092Z,13.57
2023-01-26T14:03:22.988Z,14.30
2023-01-26T14:05:57.764Z,15.20
2023-01-26T14:08:26.244Z,15.10
2023-01-26T14:10:56.421Z,15.43
2023-01-26T14:13:29.414Z,15.37
2023-01-26T14:16:00.740Z,16.17
2023-01-26T14:18:29.275Z,15.63
2023-01-26T14:21:04.088Z,15.87
2023-01-26T14:23:36.486Z,16.83
2023-01-26T14:26:11.996Z,13.90
2023-01-26T14:28:44.040Z,16.10
2023-01-26T14:31:17.922Z,17.30
2023-01-26T14:33:46.427Z,14.77
2023-01-26T14:36:18.201Z,14.50
2023-01-26T14:38:47.429Z,16.80
2023-01-26T14:41:23.416Z,16.53
2023-01-26T14:43:54.385Z,16.40
2023-01-26T14:46:28.794Z,15.40
2023-01-26T14:49:01.831Z,16.80
2023-01-26T14:51:32.389Z,17.90
2023-01-26T14:54:04.359Z,15.93
2023-01-26T14:56:48.874Z,15.63
2023-01-26T14:59:22.920Z,14.93
2023-01-26T15:01:51.699Z,15.30
2023-01-26T15:04:25.840Z,16.50
2023-01-26T15:06:54.106Z,15.20
2023-01-26T15:09:26.324Z,14.73
2023-01-26T15:12:15.698Z,16.00
2023-01-26T15:14:52.501Z,16.77
2023-01-26T15:17:38.906Z,16.67
2023-01-26T15:20:27.805Z,16.20
2023-01-26T15:22:56.252Z,14.97
2023-01-26T15:25:26.646Z,14.80
2023-01-26T15:27:58.920Z,16.77
2023-01-26T15:30:29.509Z,19.70
2023-01-26T15:32:58.406Z,16.97
2023-01-26T15:35:28.036Z,18.70
2023-01-26T15:38:04.315Z,18.80
2023-01-26T15:40:33.477Z,19.67
2023-01-26T15:43:14.113Z,19.23
2023-01-26T15:45:47.827Z,18.57
2023-01-26T15:48:15.896Z,19.50
2023-01-26T15:50:44.055Z,18.70
2023-01-26T15:53:14.930Z,18.07
2023-01-26T15:55:44.226Z,17.93
2023-01-26T15:58:13.967Z,15.87
2023-01-26T16:00:42.248Z,16.10
2023-01-26T16:03:16.318Z,14.33
2023-01-26T16:05:47.754Z,16.07
2023-01-26T16:08:15.938Z,15.57
2023-01-26T16:10:44.518Z,15.30
2023-01-26T16:13:17.653Z,12.90
2023-01-26T16:15:47.386Z,13.90
2023-01-26T16:18:15.628Z,12.80
2023-01-26T16:20:46.568Z,12.30
2023-01-26T16:23:19.570Z,11.87
2023-01-26T16:25:48.301Z,11.70
2023-01-26T16:28:18.541Z,13.30
2023-01-26T16:30:48.499Z,13.30
2023-01-26T16:33:21.003Z,11.10
2023-01-26T16:35:49.408Z,11.53
2023-01-26T16:38:17.581Z,11.50
2023-01-26T16:40:48.536Z,11.07
2023-01-26T16:43:23.648Z,8.60
2023-01-26T16:45:52.503Z,10.20
2023-01-26T16:48:21.864Z,8.17
2023-01-26T16:50:53.545Z,9.27
2023-01-26T16:53:27.132Z,10.30
2023-01-26T16:55:55.663Z,10.20
2023-01-26T16:58:26.644Z,9.50
2023-01-26T17:00:55.759Z,9.97
2023-01-26T17:03:24.018Z,9.90
2023-01-26T17:05:52.136Z,8.80
2023-01-26T17:08:20.307Z,7.90
2023-01-26T17:11:01.242Z,16.10
2023-01-26T17:13:32.470Z,12.57
2023-01-26T17:16:00.761Z,8.63
2023-01-26T17:18:28.895Z,8.73
2023-01-26T17:21:03.409Z,8.07
2023-01-26T17:23:32.268Z,9.20
2023-01-26T17:26:00.818Z,8.63
2023-01-26T17:28:29.506Z,7.80
2023-01-26T17:31:01.237Z,8.07
2023-01-26T17:33:30.402Z,7.50
2023-01-26T17:36:01.948Z,8.30
2023-01-26T17:38:30.092Z,7.83
2023-01-26T17:40:59.260Z,9.57
2023-01-26T17:43:27.670Z,8.13
2023-01-26T17:46:05.323Z,8.00
2023-01-26T17:48:34.163Z,8.90
2023-01-26T17:51:02.297Z,7.50
2023-01-26T17:53:30.451Z,7.17
2023-01-26T17:55:58.570Z,7.10
2023-01-26T17:58:26.659Z,8.63
2023-01-26T18:00:54.867Z,8.87
2023-01-26T18:03:26.370Z,9.30
2023-01-26T18:05:56.149Z,8.20
2023-01-26T18:08:25.795Z,7.70
2023-01-26T18:10:59.251Z,6.87
2023-01-26T18:13:28.466Z,8.83
2023-01-26T18:15:56.805Z,9.40
2023-01-26T18:18:28.503Z,7.80
2023-01-26T18:20:57.111Z,8.43
2023-01-26T18:23:26.106Z,8.53
2023-01-26T18:25:54.229Z,9.50
2023-01-26T18:28:22.392Z,9.10
2023-01-26T18:30:50.494Z,9.67
2023-01-26T18:33:18.896Z,9.63
2023-01-26T18:35:48.483Z,9.47
2023-01-26T18:38:16.645Z,8.90
2023-01-26T18:40:44.808Z,9.43
2023-01-26T18:43:12.873Z,10.87
2023-01-26T18:45:42.890Z,11.00
2023-01-26T18:48:11.088Z,11.23
2023-01-26T18:50:39.766Z,12.23
2023-01-26T18:53:09.764Z,11.10
2023-01-26T18:55:38.376Z,11.03
2023-01-26T18:58:06.538Z,11.23
2023-01-26T19:00:35.051Z,12.80
2023-01-26T19:03:03.196Z,12.10
2023-01-26T19:05:31.853Z,10.70
2023-01-26T19:08:10.339Z,12.87
2023-01-26T19:10:40.420Z,12.57
2023-01-26T19:13:09.445Z,13.67
2023-01-26T19:15:37.659Z,12.97
2023-01-26T19:18:06.022Z,12.50
2023-01-26T19:20:34.331Z,12.17
2023-01-26T19:23:04.053Z,12.27
2023-01-26T19:25:36.102Z,12.67
2023-01-26T19:28:05.979Z,11.87
2023-01-26T19:30:34.290Z,12.67
2023-01-26T19:33:19.903Z,11.77
2023-01-26T19:35:48.160Z,14.10
2023-01-26T19:38:16.627Z,13.83
2023-01-26T19:40:47.011Z,13.23
2023-01-26T19:43:19.201Z,12.27
2023-01-26T19:45:49.879Z,12.60
2023-01-26T19:48:18.235Z,13.03
2023-01-26T19:50:46.484Z,13.83
2023-01-26T19:53:14.854Z,13.63
2023-01-26T19:55:43.203Z,12.30
2023-01-26T19:58:11.352Z,12.50
2023-01-26T20:00:40.974Z,13.90
2023-01-26T20:03:10.395Z,12.50
2023-01-26T20:05:38.818Z,14.00
2023-01-26T20:08:07.283Z,13.47
2023-01-26T20:10:35.454Z,13.17
2023-01-26T20:13:03.691Z,15.80
2023-01-26T20:15:32.151Z,14.50
2023-01-26T20:18:02.120Z,14.70
2023-01-26T20:20:30.900Z,13.50
2023-01-26T20:22:59.247Z,14.00
2023-01-26T20:25:27.735Z,13.73
2023-01-26T20:27:56.323Z,14.93
2023-01-26T20:30:24.624Z,14.27
2023-01-26T20:32:55.057Z,15.40
2023-01-26T20:35:24.756Z,14.00
2023-01-26T20:37:52.922Z,16.50
2023-01-26T20:40:21.273Z,15.00
2023-01-26T20:42:49.502Z,15.70
2023-01-26T20:45:17.678Z,16.30
2023-01-26T20:47:46.016Z,16.10
2023-01-26T20:50:14.424Z,14.20
2023-01-26T20:52:44.893Z,15.60
2023-01-26T20:55:13.468Z,14.63
2023-01-26T20:57:41.655Z,15.53
2023-01-26T21:00:11.592Z,15.60
2023-01-26T21:02:40.392Z,15.77
2023-01-26T21:05:09.539Z,14.90
2023-01-26T21:07:37.672Z,16.53
2023-01-26T21:10:07.868Z,17.90
2023-01-26T21:12:37.410Z,18.50
2023-01-26T21:15:06.470Z,17.50
2023-01-26T21:17:34.929Z,17.60
2023-01-26T21:20:03.090Z,16.37
2023-01-26T21:22:31.372Z,15.87
2023-01-26T21:24:59.467Z,16.03
2023-01-26T21:27:28.979Z,16.23
2023-01-26T21:29:57.269Z,17.17
2023-01-26T21:32:25.607Z,17.03
2023-01-26T21:34:53.815Z,18.00
2023-01-26T21:37:22.216Z,17.57
2023-01-26T21:39:50.505Z,17.97
2023-01-26T21:42:18.846Z,17.03
2023-01-26T21:45:06.874Z,16.73
2023-01-26T21:47:34.995Z,17.97
2023-01-26T21:50:03.312Z,16.80
2023-01-26T21:52:48.679Z,18.00
2023-01-26T21:55:16.952Z,16.90
2023-01-26T21:58:02.371Z,16.17
2023-01-26T22:00:32.545Z,19.80
2023-01-26T22:03:01.621Z,17.37
2023-01-26T22:05:29.791Z,16.83
2023-01-26T22:07:58.140Z,18.17
2023-01-26T22:10:26.392Z,16.57
2023-01-26T22:12:54.518Z,19.93
2023-01-26T22:15:22.719Z,20.63
2023-01-26T22:17:52.286Z,19.53
2023-01-26T22:20:20.994Z,20.37
2023-01-26T22:22:49.144Z,20.90
2023-01-26T22:25:17.415Z,18.87
2023-01-26T22:27:45.724Z,18.97
2023-01-26T22:30:14.592Z,20.03
2023-01-26T22:32:44.092Z,20.00
2023-01-26T22:35:13.935Z,17.00
2023-01-26T22:37:43.121Z,18.73
2023-01-26T22:40:12.842Z,20.07
2023-01-26T22:42:41.364Z,18.60
2023-01-26T22:45:10.768Z,19.40
2023-01-26T22:47:41.022Z,19.20
2023-01-26T22:50:11.293Z,17.50
2023-01-26T22:52:41.543Z,19.00
2023-01-26T22:55:10.228Z,21.60
2023-01-26T22:57:38.838Z,22.20
2023-01-26T23:00:08.627Z,21.50
2023-01-26T23:02:36.912Z,20.50
2023-01-26T23:05:05.443Z,19.60
2023-01-26T23:07:33.619Z,18.63
2023-01-26T23:10:03.112Z,24.10
2023-01-26T23:12:31.265Z,23.70
2023-01-26T23:14:59.437Z,22.03
2023-01-26T23:17:27.576Z,22.57
2023-01-26T23:19:55.943Z,24.63
2023-01-26T23:22:24.028Z,23.10
2023-01-26T23:25:06.018Z,22.70
2023-01-26T23:27:35.817Z,22.97
2023-01-26T23:30:04.168Z,21.50
2023-01-26T23:32:32.513Z,21.63
2023-01-26T23:35:00.790Z,22.60
2023-01-26T23:37:29.109Z,22.37
2023-01-26T23:39:57.244Z,21.90
2023-01-26T23:42:25.482Z,21.37
2023-01-26T23:44:55.236Z,20.83
2023-01-26T23:47:23.820Z,22.50
2023-01-26T23:49:52.048Z,19.50
2023-01-26T23:52:20.281Z,24.60
2023-01-26T23:54:48.757Z,23.70
2023-01-26T23:57:17.051Z,21.87
2023-01-26T23:59:45.271Z,23.63
